General Aviation Weather

Text Reports

Enter one or more of the following location identifiers separated by a space:

Zip Code, Four-Character ICAO or Three-Character IATA airport codes.

METAR - Aviation Routine Weather Report
KTRL - Terrell, Texas
Updated at 5:53 PM GMT on March 28, 2015 (12:53 PM CDT):
METAR KTRL 281753Z AUTO 18008KT 10SM CLR 21/09 A3008 RMK AO2 SLP182 T02110089 10211 20067 58017
TAF - Terminal Area Forecast
KTRL - Terrell, Texas
Updated at 5:53 PM GMT on March 28, 2015 (12:53 PM CDT):
No TAF is currently available for this location.
Decoded:
No decoded TAF is available.
PIREP - Pilot Weather Report
KTRL - Terrell, Texas
Updated at 5:53 PM GMT on March 28, 2015 (12:53 PM CDT):
No PIREP is currently available for this location.
AIRMET - Airmens Meteorological Information
KTRL - Terrell, Texas
Updated at 5:53 PM GMT on March 28, 2015 (12:53 PM CDT):
No AIRMET is currently available for this location.
SIGMET - Significant Meteorological Information
KTRL - Terrell, Texas
Updated at 5:53 PM GMT on March 28, 2015 (12:53 PM CDT):
No SIGMET is currently available for this location.
NOTAM - Notice to Airmen
KTRL - Terrell, Texas
Updated at 5:53 PM GMT on March 28, 2015 (12:53 PM CDT):
No NOTAM is currently available for this location.
Forecast Area
KTRL - Terrell, Texas
Updated at 5:53 PM GMT on March 28, 2015 (12:53 PM CDT):
No NOTAM is currently available for this location.
Aviation Weather Maps